createdAt,value
2022-12-16T06:58:22.698Z,12.27
2022-12-16T07:01:13.539Z,7.72
2022-12-16T07:04:03.455Z,7.30
2022-12-16T07:07:11.815Z,11.95
2022-12-16T07:15:41.916Z,14.57
2022-12-16T07:18:27.458Z,15.82
2022-12-16T07:21:13.604Z,10.95
2022-12-16T07:24:00.410Z,13.05
2022-12-16T07:26:46.565Z,9.18
2022-12-16T07:29:33.792Z,9.88
2022-12-16T07:32:19.461Z,9.07
2022-12-16T07:35:25.547Z,11.40
2022-12-16T07:38:14.927Z,14.70
2022-12-16T07:41:02.882Z,9.95
2022-12-16T07:43:51.578Z,13.00
2022-12-16T07:46:37.760Z,18.20
2022-12-16T07:49:24.503Z,15.13
2022-12-16T07:52:15.957Z,9.85
2022-12-16T07:55:06.975Z,11.55
2022-12-16T07:57:53.590Z,12.82
2022-12-16T08:00:40.494Z,8.10
2022-12-16T08:03:28.667Z,8.88
2022-12-16T08:06:15.514Z,10.90
2022-12-16T08:09:02.582Z,14.75
2022-12-16T08:11:52.211Z,14.85
2022-12-16T08:14:41.617Z,37.45
2022-12-16T08:17:32.104Z,66.93
2022-12-16T08:20:20.528Z,31.45
2022-12-16T08:23:07.613Z,22.58
2022-12-16T08:25:56.859Z,11.85
2022-12-16T08:28:45.913Z,10.63
2022-12-16T08:31:34.593Z,11.18
2022-12-16T08:34:24.506Z,10.38
2022-12-16T08:37:13.196Z,7.90
2022-12-16T08:40:33.185Z,12.60
2022-12-16T08:43:12.682Z,10.40
2022-12-16T08:46:02.270Z,14.02
2022-12-16T08:48:48.587Z,11.45
2022-12-16T08:51:35.583Z,12.88
2022-12-16T08:54:25.947Z,14.02
2022-12-16T08:57:13.647Z,14.90
2022-12-16T09:00:03.814Z,14.45
2022-12-16T09:02:52.078Z,9.38
2022-12-16T09:05:41.967Z,15.00
2022-12-16T09:08:32.643Z,11.52
2022-12-16T09:11:27.178Z,9.48
2022-12-16T09:14:15.655Z,14.20
2022-12-16T09:17:04.980Z,8.52
2022-12-16T09:19:55.326Z,13.32
2022-12-16T09:22:44.221Z,11.43
2022-12-16T09:25:32.667Z,12.48
2022-12-16T09:28:21.974Z,10.05
2022-12-16T09:31:28.683Z,10.90
2022-12-16T09:34:31.693Z,10.07
2022-12-16T09:37:28.731Z,15.90
2022-12-16T09:40:18.680Z,11.82
2022-12-16T09:43:48.663Z,15.20
2022-12-16T09:47:18.732Z,17.00
2022-12-16T09:50:11.706Z,28.00
2022-12-16T09:53:12.652Z,12.48
2022-12-16T09:56:03.297Z,11.65
2022-12-16T09:58:59.735Z,9.30
2022-12-16T10:01:52.163Z,8.50
2022-12-16T10:04:46.006Z,14.93
2022-12-16T10:07:45.955Z,12.45
2022-12-16T10:11:19.012Z,14.25
2022-12-16T10:14:33.189Z,16.08
2022-12-16T10:17:39.707Z,14.75
2022-12-16T10:21:06.092Z,8.73
2022-12-16T10:24:28.630Z,8.98
2022-12-16T10:27:31.679Z,10.13
2022-12-16T10:30:21.737Z,23.38
2022-12-16T10:33:10.898Z,10.00
2022-12-16T10:36:16.034Z,11.75
2022-12-16T10:42:14.134Z,9.85
2022-12-16T10:45:21.020Z,14.10
2022-12-16T10:48:23.486Z,15.15
2022-12-16T10:51:12.763Z,8.82
2022-12-16T10:54:01.693Z,9.93
2022-12-16T10:57:15.354Z,13.60
2022-12-16T11:00:09.794Z,20.90
2022-12-16T11:02:59.425Z,20.30
2022-12-16T11:06:02.788Z,14.00
2022-12-16T11:08:57.987Z,11.50
2022-12-16T11:11:51.857Z,10.77
2022-12-16T11:15:05.669Z,14.88
2022-12-16T11:17:56.717Z,14.27
2022-12-16T11:20:47.175Z,11.18
2022-12-16T11:23:41.313Z,9.93
2022-12-16T11:26:38.064Z,15.00
2022-12-16T11:29:35.915Z,14.80
2022-12-16T11:32:49.820Z,12.27
2022-12-16T11:35:41.405Z,16.08
2022-12-16T11:38:59.273Z,14.63
2022-12-16T11:41:52.703Z,18.05
2022-12-16T11:45:05.250Z,12.25
2022-12-16T11:48:21.462Z,13.63
2022-12-16T11:51:19.416Z,18.15
2022-12-16T11:54:09.813Z,10.75
2022-12-16T11:57:03.144Z,15.48
2022-12-16T12:00:18.087Z,17.00
2022-12-16T12:03:32.337Z,10.30
2022-12-16T12:06:40.843Z,20.38
2022-12-16T12:09:36.784Z,15.38
2022-12-16T12:12:57.395Z,12.38
2022-12-16T12:19:19.191Z,12.95
2022-12-16T12:26:05.750Z,13.05
2022-12-16T12:29:13.895Z,15.73
2022-12-16T12:32:43.530Z,12.18
2022-12-16T12:36:08.095Z,20.25
2022-12-16T12:39:27.089Z,12.27
2022-12-16T12:42:22.899Z,15.63
2022-12-16T12:45:47.430Z,17.25
2022-12-16T12:48:41.142Z,16.00
2022-12-16T12:52:01.198Z,17.70
2022-12-16T12:55:05.372Z,12.75
2022-12-16T12:57:56.736Z,8.30
2022-12-16T13:00:48.989Z,12.38
2022-12-16T13:04:13.218Z,15.52
2022-12-16T13:07:02.130Z,12.82
2022-12-16T13:10:09.260Z,12.55
2022-12-16T13:12:57.092Z,12.65
2022-12-16T13:16:00.702Z,13.88
2022-12-16T13:19:09.677Z,14.35
2022-12-16T13:21:56.455Z,13.20
2022-12-16T13:24:48.229Z,16.50
2022-12-16T13:27:40.014Z,14.70
2022-12-16T13:30:47.404Z,15.45
2022-12-16T13:33:53.934Z,17.80
2022-12-16T13:37:07.945Z,12.70
2022-12-16T13:39:55.967Z,10.77
2022-12-16T13:43:20.560Z,15.93
2022-12-16T13:46:36.958Z,12.98
2022-12-16T13:50:17.256Z,18.40
2022-12-16T13:53:19.068Z,14.55
2022-12-16T13:56:20.270Z,18.50
2022-12-16T13:59:18.449Z,14.38
2022-12-16T14:02:21.908Z,13.93
2022-12-16T14:05:36.893Z,15.68
2022-12-16T14:08:24.788Z,29.40
2022-12-16T14:11:48.702Z,20.77
2022-12-16T14:14:53.087Z,15.00
2022-12-16T14:17:58.009Z,16.17
2022-12-16T14:21:00.301Z,14.50
2022-12-16T14:24:21.935Z,12.25
2022-12-16T14:27:13.590Z,12.98
2022-12-16T14:30:02.619Z,13.85
2022-12-16T14:32:53.008Z,14.43
2022-12-16T14:35:42.933Z,15.07
2022-12-16T14:38:51.278Z,16.27
2022-12-16T14:41:45.119Z,15.57
2022-12-16T14:44:53.858Z,16.55
2022-12-16T14:47:40.903Z,20.50
2022-12-16T14:50:43.401Z,14.65
2022-12-16T14:53:36.391Z,18.42
2022-12-16T14:56:42.016Z,23.50
2022-12-16T14:59:36.370Z,14.05
2022-12-16T15:02:56.414Z,18.93
2022-12-16T15:05:49.079Z,20.23
2022-12-16T15:08:38.366Z,23.25
2022-12-16T15:11:31.289Z,18.20
2022-12-16T15:14:22.399Z,15.30
2022-12-16T15:17:14.665Z,20.30
2022-12-16T15:20:13.598Z,19.45
2022-12-16T15:23:06.049Z,18.90
2022-12-16T15:25:53.015Z,18.00
2022-12-16T15:29:09.485Z,15.05
2022-12-16T15:32:03.488Z,17.65
2022-12-16T15:35:10.224Z,16.65
2022-12-16T15:38:04.766Z,16.50
2022-12-16T15:40:53.075Z,15.05
2022-12-16T15:43:57.675Z,18.88
2022-12-16T15:46:47.237Z,19.80
2022-12-16T15:49:56.891Z,19.48
2022-12-16T15:53:07.488Z,21.92
2022-12-16T15:56:04.349Z,17.98
2022-12-16T15:59:00.859Z,20.83
2022-12-16T16:02:04.734Z,21.13
2022-12-16T16:04:56.421Z,16.38
2022-12-16T16:07:47.100Z,17.25
2022-12-16T16:11:00.438Z,15.07
2022-12-16T16:13:51.329Z,15.82
2022-12-16T16:16:40.460Z,15.88
2022-12-16T16:19:50.181Z,14.82
2022-12-16T16:22:40.433Z,14.98
2022-12-16T16:25:30.438Z,17.38
2022-12-16T16:28:18.072Z,17.50
2022-12-16T16:31:06.115Z,18.63
2022-12-16T16:33:54.060Z,17.58
2022-12-16T16:36:40.174Z,16.85
2022-12-16T16:39:31.412Z,23.88
2022-12-16T16:42:18.118Z,12.48
2022-12-16T16:45:09.515Z,15.07
2022-12-16T16:48:03.112Z,12.23
2022-12-16T16:50:54.155Z,11.63
2022-12-16T16:53:43.419Z,13.73
2022-12-16T16:56:33.174Z,14.30
2022-12-16T16:59:20.665Z,27.10
2022-12-16T17:02:12.712Z,13.18
2022-12-16T17:05:00.508Z,15.07
2022-12-16T17:07:52.189Z,12.18
2022-12-16T17:10:43.382Z,15.05
2022-12-16T17:13:29.110Z,11.43
2022-12-16T17:16:15.424Z,11.60
2022-12-16T17:19:03.158Z,10.90
2022-12-16T17:21:52.420Z,12.10
2022-12-16T17:24:46.532Z,10.32
2022-12-16T17:27:41.223Z,9.32
2022-12-16T17:30:40.704Z,9.20
2022-12-16T17:33:31.514Z,7.38
2022-12-16T17:36:25.049Z,11.38
2022-12-16T17:39:14.455Z,7.03
2022-12-16T17:42:03.575Z,7.10
2022-12-16T17:44:52.302Z,12.52
2022-12-16T17:47:39.250Z,8.82
2022-12-16T17:50:29.872Z,10.75
2022-12-16T17:53:20.777Z,15.57
2022-12-16T17:56:13.561Z,14.90
2022-12-16T17:59:05.828Z,13.13
2022-12-16T18:01:54.368Z,8.93
2022-12-16T18:04:42.274Z,11.43
2022-12-16T18:07:29.248Z,12.10
2022-12-16T18:10:17.180Z,13.35
2022-12-16T18:13:08.510Z,10.82
2022-12-16T18:15:56.309Z,16.63
2022-12-16T18:18:46.295Z,13.38
2022-12-16T18:21:35.497Z,15.98
2022-12-16T18:24:28.235Z,27.65
2022-12-16T18:30:13.603Z,72.60
2022-12-16T18:33:01.227Z,35.28
2022-12-16T18:35:51.930Z,12.48
2022-12-16T18:38:46.048Z,10.85
2022-12-16T18:41:40.239Z,16.03
2022-12-16T18:44:33.775Z,14.90
2022-12-16T18:47:24.375Z,12.63
2022-12-16T18:50:11.690Z,13.13
2022-12-16T18:53:01.937Z,10.13
2022-12-16T18:55:53.513Z,10.43
2022-12-16T18:58:51.371Z,17.98
2022-12-16T19:01:43.659Z,11.65
2022-12-16T19:04:36.260Z,11.32
2022-12-16T19:07:23.283Z,15.95
2022-12-16T19:10:09.511Z,15.60
2022-12-16T19:13:02.600Z,19.05
2022-12-16T19:15:51.340Z,16.52
2022-12-16T19:18:41.464Z,13.07
2022-12-16T19:21:30.330Z,18.05
2022-12-16T19:24:17.781Z,14.13
2022-12-16T19:30:07.649Z,19.58
2022-12-16T19:33:17.004Z,10.63
2022-12-16T19:36:06.618Z,11.63
2022-12-16T19:38:55.114Z,10.18
2022-12-16T19:41:49.658Z,11.07
2022-12-16T19:44:37.974Z,11.90
2022-12-16T19:47:32.434Z,9.43
2022-12-16T19:50:22.361Z,12.07
2022-12-16T19:53:10.924Z,11.60
2022-12-16T19:56:01.513Z,9.55
2022-12-16T19:58:51.053Z,8.70
2022-12-16T20:01:39.532Z,10.98
2022-12-16T20:04:28.816Z,9.45
2022-12-16T20:07:17.774Z,9.32
2022-12-16T20:10:09.089Z,10.18
2022-12-16T20:13:01.487Z,6.90
2022-12-16T20:15:49.387Z,8.60
2022-12-16T20:18:39.880Z,8.85
2022-12-16T20:21:27.356Z,7.40
2022-12-16T20:24:14.376Z,9.60
2022-12-16T20:27:01.659Z,8.93
2022-12-16T20:29:48.399Z,8.93
2022-12-16T20:32:38.735Z,9.25
2022-12-16T20:35:28.732Z,7.97
2022-12-16T20:38:17.805Z,10.88
2022-12-16T20:41:26.671Z,11.10
2022-12-16T20:44:13.611Z,6.72
2022-12-16T20:47:03.975Z,10.05
2022-12-16T20:49:53.571Z,9.32
2022-12-16T20:52:50.748Z,9.32
2022-12-16T20:55:40.391Z,15.10
2022-12-16T20:58:31.019Z,12.45
2022-12-16T21:01:21.836Z,11.80
2022-12-16T21:04:09.885Z,7.57
2022-12-16T21:07:03.002Z,11.40
2022-12-16T21:09:51.817Z,9.25
2022-12-16T21:12:39.863Z,8.93
2022-12-16T21:15:30.264Z,6.28
2022-12-16T21:18:24.941Z,8.85
2022-12-16T21:21:14.792Z,6.22
2022-12-16T21:24:03.806Z,4.90
2022-12-16T21:26:52.620Z,7.00
2022-12-16T21:29:46.490Z,4.03
2022-12-16T21:32:44.348Z,4.25
2022-12-16T21:35:47.830Z,6.85
2022-12-16T21:38:39.603Z,8.65
2022-12-16T21:41:29.984Z,7.95
2022-12-16T21:44:20.831Z,7.50
2022-12-16T21:47:09.799Z,4.40
2022-12-16T21:49:58.960Z,8.27
2022-12-16T21:52:49.781Z,6.15
2022-12-16T21:55:39.536Z,7.13
2022-12-16T21:58:34.699Z,5.13
2022-12-16T22:01:26.908Z,7.43
2022-12-16T22:04:15.592Z,3.70
2022-12-16T22:07:04.737Z,3.75
2022-12-16T22:09:56.466Z,6.07
2022-12-16T22:12:42.713Z,4.22
2022-12-16T22:15:29.494Z,5.80
2022-12-16T22:18:20.932Z,2.30
2022-12-16T22:21:28.075Z,3.70
2022-12-16T22:24:20.646Z,6.15
2022-12-16T22:27:10.848Z,5.57
2022-12-16T22:29:59.501Z,8.88
2022-12-16T22:32:50.332Z,4.35
2022-12-16T22:35:37.940Z,4.65
2022-12-16T22:38:26.535Z,8.15
2022-12-16T22:41:18.566Z,4.45
2022-12-16T22:44:08.547Z,4.10
2022-12-16T22:47:00.167Z,6.95
2022-12-16T22:49:49.935Z,3.72
2022-12-16T22:52:40.853Z,4.30
2022-12-16T22:55:28.517Z,3.00
2022-12-16T22:58:17.575Z,5.57
2022-12-16T23:01:07.795Z,10.23
2022-12-16T23:03:58.009Z,12.80
2022-12-16T23:06:48.032Z,14.23
2022-12-16T23:09:40.986Z,16.42
2022-12-16T23:12:30.930Z,17.30
2022-12-16T23:15:22.761Z,22.05
2022-12-16T23:18:11.890Z,22.52
2022-12-16T23:21:06.665Z,23.10
2022-12-16T23:23:56.978Z,31.60
2022-12-16T23:26:47.896Z,28.35
2022-12-16T23:29:36.660Z,33.55
2022-12-16T23:32:22.793Z,30.67
2022-12-16T23:35:10.637Z,28.67
2022-12-16T23:37:57.930Z,28.30
2022-12-16T23:40:47.795Z,29.60
2022-12-16T23:43:38.224Z,29.45
2022-12-16T23:46:28.688Z,31.48
2022-12-16T23:49:18.107Z,34.20
2022-12-16T23:52:06.398Z,41.47
2022-12-16T23:54:53.626Z,33.63
2022-12-16T23:57:46.256Z,36.03
